Time;durP1;ratioP1;P1;durP2;ratioP2;P2;SDS_P1;SDS_P2;PMS_P1;PMS_P2;Temp;Humidity;BMP_temperature;BMP_pressure;BME280_temperature;BME280_humidity;BME280_pressure;Samples;Min_cycle;Max_cycle;Signal;HPM_P1;HPM_P2
2023/12/02 00:00:00;;;;;;;12.52;9.63;;;;;;;7.58;79.87;92822.47;521283;28;3336;-68
2023/12/02 00:00:16;;;;;;;13.63;10.13;;;;;;;7.60;79.86;92823.41;520433;28;3290;-68
2023/12/02 00:00:31;;;;;;;12.30;10.18;;;;;;;7.60;79.83;92817.91;521063;28;3098;-68
2023/12/02 00:00:47;;;;;;;9.90;8.90;;;;;;;7.62;79.65;92820.13;520913;28;2920;-68
2023/12/02 00:01:02;;;;;;;10.35;8.85;;;;;;;7.64;79.77;92818.28;522722;28;3398;-68
2023/12/02 00:01:18;;;;;;;12.17;9.73;;;;;;;7.64;80.03;92817.56;522354;28;2218;-68
2023/12/02 00:01:33;;;;;;;10.75;9.32;;;;;;;7.63;80.14;92814.06;520446;28;3420;-67
2023/12/02 00:01:49;;;;;;;10.20;8.30;;;;;;;7.65;80.34;92811.50;521034;28;2232;-68
2023/12/02 00:02:04;;;;;;;11.23;8.55;;;;;;;7.63;80.69;92816.81;522615;28;3412;-68
2023/12/02 00:02:20;;;;;;;12.93;9.43;;;;;;;7.64;80.65;92823.06;522932;28;3333;-70
2023/12/02 00:02:35;;;;;;;11.93;9.20;;;;;;;7.64;80.78;92818.28;522430;28;3001;-69
2023/12/02 00:02:52;;;;;;;10.40;9.20;;;;;;;7.43;80.60;92792.94;521749;28;3047;-69
2023/12/02 00:03:07;;;;;;;11.20;9.55;;;;;;;7.62;80.80;92820.13;520663;28;3325;-69
2023/12/02 00:03:23;;;;;;;11.80;10.10;;;;;;;7.68;80.73;92826.19;521751;28;3371;-69
2023/12/02 00:03:38;;;;;;;12.57;10.50;;;;;;;7.70;80.56;92836.63;521488;28;3113;-69
2023/12/02 00:03:54;;;;;;;13.57;10.97;;;;;;;7.70;80.54;92833.88;522612;28;2665;-69
2023/12/02 00:04:10;;;;;;;13.60;11.37;;;;;;;7.70;80.52;92831.13;520730;28;3426;-69
2023/12/02 00:04:25;;;;;;;14.40;11.73;;;;;;;7.68;80.59;92825.44;521561;28;3444;-69
2023/12/02 00:04:41;;;;;;;14.37;12.00;;;;;;;7.71;80.43;92829.84;520580;28;3423;-69
2023/12/02 00:04:56;;;;;;;16.23;12.63;;;;;;;7.73;80.46;92835.53;522169;28;1869;-69
2023/12/02 00:05:12;;;;;;;15.77;11.83;;;;;;;7.73;80.35;92825.28;521053;28;3249;-69
2023/12/02 00:05:27;;;;;;;13.93;11.20;;;;;;;7.75;80.28;92835.72;521889;28;3248;-69
2023/12/02 00:05:43;;;;;;;14.83;11.80;;;;;;;7.75;79.98;92821.97;523433;28;4036;-68
2023/12/02 00:05:58;;;;;;;14.85;11.00;;;;;;;7.75;79.98;92819.97;521987;28;1974;-69
2023/12/02 00:06:14;;;;;;;14.20;10.27;;;;;;;7.76;79.82;92821.44;521871;28;1999;-69
2023/12/02 00:06:29;;;;;;;13.07;10.47;;;;;;;7.77;79.52;92822.16;521462;28;2197;-69
2023/12/02 00:06:44;;;;;;;12.65;9.60;;;;;;;7.78;79.73;92829.13;521193;28;2172;-69
2023/12/02 00:07:00;;;;;;;12.00;8.90;;;;;;;7.78;79.43;92831.88;522428;28;3106;-69
2023/12/02 00:07:15;;;;;;;11.60;9.45;;;;;;;7.78;79.40;92832.59;521416;28;1790;-69
2023/12/02 00:07:31;;;;;;;12.33;9.90;;;;;;;7.78;79.28;92829.88;522619;28;3192;-69
2023/12/02 00:07:46;;;;;;;12.52;9.02;;;;;;;7.78;79.26;92827.13;521088;28;2615;-69
2023/12/02 00:08:02;;;;;;;11.70;8.13;;;;;;;7.79;79.13;92828.59;521579;28;2614;-69
2023/12/02 00:08:17;;;;;;;10.32;7.43;;;;;;;7.80;79.37;92829.31;521232;28;2031;-69
2023/12/02 00:08:33;;;;;;;8.70;7.07;;;;;;;7.76;79.54;92818.69;521311;28;2822;-69
2023/12/02 00:08:48;;;;;;;8.83;7.17;;;;;;;7.78;79.40;92827.13;522821;28;2286;-69
2023/12/02 00:09:04;;;;;;;11.25;7.88;;;;;;;7.76;79.47;92817.94;521374;28;3548;-69
2023/12/02 00:09:19;;;;;;;11.03;8.00;;;;;;;7.63;79.46;92803.09;522245;28;2509;-68
2023/12/02 00:09:36;;;;;;;8.80;7.38;;;;;;;7.72;79.61;92818.31;520594;28;3109;-69
2023/12/02 00:09:51;;;;;;;8.75;6.93;;;;;;;7.76;79.78;92820.69;515771;28;1720;-68
2023/12/02 00:10:07;;;;;;;9.40;7.00;;;;;;;7.78;79.80;92818.88;518144;28;3247;-69
2023/12/02 00:10:23;;;;;;;9.50;7.35;;;;;;;7.78;80.12;92826.38;517461;28;3130;-69
2023/12/02 00:10:38;;;;;;;8.87;7.63;;;;;;;7.78;79.93;92815.38;517202;28;3296;-70
2023/12/02 00:10:54;;;;;;;9.27;8.30;;;;;;;7.80;79.88;92829.31;518948;28;3443;-68
2023/12/02 00:11:10;;;;;;;10.67;8.93;;;;;;;7.81;80.16;92820.53;518279;28;1924;-68
2023/12/02 00:11:26;;;;;;;10.82;8.35;;;;;;;7.83;80.04;92820.72;519041;28;2546;-68
2023/12/02 00:11:41;;;;;;;10.13;7.93;;;;;;;7.86;80.07;92821.66;518913;28;3106;-68
2023/12/02 00:11:57;;;;;;;11.37;8.10;;;;;;;7.84;80.21;92830.41;521659;28;3184;-68
2023/12/02 00:12:12;;;;;;;9.43;7.47;;;;;;;7.84;79.96;92824.94;522345;28;3736;-69
2023/12/02 00:12:28;;;;;;;7.80;6.77;;;;;;;7.84;80.20;92821.47;523330;28;3330;-69
2023/12/02 00:12:43;;;;;;;8.53;6.70;;;;;;;7.83;80.25;92826.22;521101;28;3168;-68
2023/12/02 00:12:59;;;;;;;8.05;6.43;;;;;;;7.77;80.57;92817.41;522831;28;3064;-69
2023/12/02 00:13:14;;;;;;;5.77;4.73;;;;;;;7.67;81.13;92808.22;518532;28;3640;-69
2023/12/02 00:13:29;;;;;;;4.82;3.58;;;;;;;7.74;81.61;92817.75;519842;28;2210;-68
2023/12/02 00:13:46;;;;;;;4.70;3.07;;;;;;;7.75;81.79;92819.25;519898;28;2303;-69
2023/12/02 00:14:01;;;;;;;4.43;2.78;;;;;;;7.78;81.88;92820.88;519400;28;2233;-69
2023/12/02 00:14:17;;;;;;;4.35;2.75;;;;;;;7.79;82.45;92820.34;518909;28;3507;-69
2023/12/02 00:14:32;;;;;;;5.33;3.13;;;;;;;7.76;82.24;92806.94;519157;28;2136;-69
2023/12/02 00:14:48;;;;;;;7.07;3.70;;;;;;;7.84;82.26;92818.72;519469;28;3411;-68
2023/12/02 00:15:04;;;;;;;6.87;4.07;;;;;;;7.85;82.35;92820.16;521420;28;3130;-68
2023/12/02 00:15:20;;;;;;;6.28;4.18;;;;;;;7.86;82.48;92821.66;522908;28;3254;-68
2023/12/02 00:15:35;;;;;;;6.37;4.17;;;;;;;7.84;82.53;92815.97;522696;28;3110;-68
2023/12/02 00:15:51;;;;;;;6.38;4.38;;;;;;;7.89;82.48;92824.03;523100;28;2657;-67
2023/12/02 00:16:07;;;;;;;5.27;4.40;;;;;;;7.91;82.19;92815.97;523368;28;3395;-68
2023/12/02 00:16:22;;;;;;;5.05;4.55;;;;;;;7.75;82.39;92789.00;522671;28;3821;-68
2023/12/02 00:16:38;;;;;;;6.13;5.50;;;;;;;7.93;82.22;92820.91;520362;28;2346;-68
2023/12/02 00:16:54;;;;;;;9.05;8.10;;;;;;;7.93;82.03;92820.91;519278;28;3161;-68
2023/12/02 00:17:09;;;;;;;10.73;9.30;;;;;;;7.90;82.04;92820.00;519779;28;3125;-68
2023/12/02 00:17:24;;;;;;;9.15;7.35;;;;;;;7.89;81.73;92821.28;521019;28;3540;-68
2023/12/02 00:17:40;;;;;;;6.90;5.60;;;;;;;7.88;81.84;92822.56;519998;28;3780;-68
2023/12/02 00:17:55;;;;;;;7.13;5.50;;;;;;;7.61;81.37;92789.16;521271;28;2207;-68
2023/12/02 00:18:11;;;;;;;9.55;6.38;;;;;;;7.88;81.73;92819.09;519574;28;2330;-68
2023/12/02 00:18:26;;;;;;;11.33;7.07;;;;;;;7.90;81.63;92822.03;521517;28;3209;-68
2023/12/02 00:18:42;;;;;;;16.23;8.77;;;;;;;7.90;81.54;92822.03;522910;28;2388;-68
2023/12/02 00:18:57;;;;;;;21.23;11.17;;;;;;;7.93;81.25;92832.66;522423;28;3394;-68
2023/12/02 00:19:13;;;;;;;23.17;12.23;;;;;;;7.91;81.05;92826.22;520044;28;2304;-68
2023/12/02 00:19:28;;;;;;;19.30;10.67;;;;;;;7.91;80.86;92826.22;522009;28;2777;-68
2023/12/02 00:19:43;;;;;;;13.37;8.30;;;;;;;7.69;80.64;92799.44;522563;28;2290;-68
2023/12/02 00:19:59;;;;;;;13.45;7.80;;;;;;;7.93;80.38;92826.41;522078;28;3346;-67
2023/12/02 00:20:15;;;;;;;12.20;7.97;;;;;;;7.95;80.44;92829.38;522573;28;3998;-68
2023/12/02 00:20:30;;;;;;;10.80;7.55;;;;;;;7.96;80.36;92833.56;524390;28;3526;-67
2023/12/02 00:20:45;;;;;;;11.90;7.07;;;;;;;7.92;80.39;92824.97;520883;28;3041;-68
2023/12/02 00:21:01;;;;;;;10.55;6.05;;;;;;;7.93;80.14;92821.66;522286;28;3179;-68
2023/12/02 00:21:16;;;;;;;6.17;4.57;;;;;;;8.01;80.45;92835.44;521785;28;3252;-68
2023/12/02 00:21:32;;;;;;;7.13;4.53;;;;;;;7.90;80.33;92816.53;523291;28;3558;-68
2023/12/02 00:21:48;;;;;;;8.37;4.67;;;;;;;8.02;80.58;92839.63;519792;28;1835;-68
2023/12/02 00:22:06;;;;;;;5.82;3.72;;;;;;;8.01;80.70;92835.44;523726;28;3132;-68
2023/12/02 00:22:21;;;;;;;4.63;3.58;;;;;;;8.03;80.72;92838.34;523434;28;1856;-68
2023/12/02 00:22:37;;;;;;;4.50;3.35;;;;;;;8.05;80.99;92838.53;521558;28;3550;-68
2023/12/02 00:22:52;;;;;;;3.83;2.83;;;;;;;8.05;80.93;92838.53;524049;28;2193;-68
2023/12/02 00:23:08;;;;;;;3.10;2.80;;;;;;;8.05;81.12;92838.53;522122;28;2176;-68
2023/12/02 00:23:23;;;;;;;3.35;2.80;;;;;;;8.02;81.13;92836.88;521683;28;3964;-66
2023/12/02 00:23:39;;;;;;;3.40;2.75;;;;;;;8.05;81.41;92838.53;520426;28;3173;-68
2023/12/02 00:23:54;;;;;;;3.27;2.77;;;;;;;8.06;81.43;92846.25;521604;28;2609;-68
2023/12/02 00:24:10;;;;;;;4.67;2.70;;;;;;;8.06;81.58;92840.75;522847;28;2407;-68
2023/12/02 00:24:25;;;;;;;3.87;2.47;;;;;;;8.06;81.46;92837.25;522421;28;3160;-68
2023/12/02 00:24:41;;;;;;;2.30;2.10;;;;;;;8.06;81.55;92837.25;523052;28;3952;-68
2023/12/02 00:24:56;;;;;;;2.47;2.17;;;;;;;8.07;81.69;92844.97;521596;28;3339;-68
2023/12/02 00:25:12;;;;;;;2.57;2.30;;;;;;;8.08;81.71;92843.66;522329;28;1930;-68
2023/12/02 00:25:27;;;;;;;2.50;2.08;;;;;;;8.09;81.67;92838.91;521827;28;3378;-67
2023/12/02 00:25:42;;;;;;;2.53;2.03;;;;;;;8.11;81.60;92839.84;521866;28;2029;-68
2023/12/02 00:25:58;;;;;;;3.47;2.00;;;;;;;8.13;81.42;92840.03;521474;28;2060;-68
2023/12/02 00:26:14;;;;;;;5.23;2.03;;;;;;;8.14;81.44;92841.47;521615;28;3460;-69
2023/12/02 00:26:30;;;;;;;3.78;1.92;;;;;;;8.17;81.82;92845.16;520434;28;3023;-68
2023/12/02 00:26:45;;;;;;;2.95;2.45;;;;;;;8.17;81.40;92834.16;521879;28;3429;-68
2023/12/02 00:27:01;;;;;;;4.43;3.75;;;;;;;8.19;81.42;92834.34;522854;28;2427;-68
2023/12/02 00:27:18;;;;;;;4.78;4.32;;;;;;;8.21;81.54;92840.75;521374;28;2258;-68
2023/12/02 00:27:34;;;;;;;5.82;5.28;;;;;;;8.22;81.14;92836.75;520868;28;3433;-68
2023/12/02 00:27:49;;;;;;;5.83;5.27;;;;;;;8.24;81.20;92833.44;524073;28;2313;-68
2023/12/02 00:28:05;;;;;;;4.70;4.30;;;;;;;8.26;81.00;92831.63;519671;28;3385;-68
2023/12/02 00:28:20;;;;;;;4.90;4.40;;;;;;;8.29;81.22;92835.31;519275;28;3333;-68
2023/12/02 00:28:36;;;;;;;5.37;4.83;;;;;;;8.24;80.85;92833.44;518297;28;2624;-68
2023/12/02 00:28:51;;;;;;;5.97;5.15;;;;;;;8.29;81.09;92832.56;519550;28;1982;-68
2023/12/02 00:29:07;;;;;;;6.23;5.43;;;;;;;8.30;80.70;92834.75;518442;28;2109;-67
2023/12/02 00:29:22;;;;;;;6.28;5.47;;;;;;;8.30;80.63;92834.75;519769;28;3164;-68
2023/12/02 00:29:37;;;;;;;7.20;5.50;;;;;;;8.32;80.58;92831.44;520960;28;3531;-68
2023/12/02 00:29:53;;;;;;;7.45;5.63;;;;;;;8.21;80.62;92818.03;521877;28;1836;-68
2023/12/02 00:30:09;;;;;;;8.80;5.97;;;;;;;8.35;80.45;92839.34;522319;28;3201;-68
2023/12/02 00:30:24;;;;;;;8.50;6.00;;;;;;;8.37;80.15;92838.78;521785;28;3081;-68
2023/12/02 00:30:40;;;;;;;6.45;5.70;;;;;;;8.39;80.06;92842.47;520997;28;1843;-68
2023/12/02 00:30:55;;;;;;;7.23;5.73;;;;;;;8.40;79.91;92843.22;521147;28;3303;-66
2023/12/02 00:31:11;;;;;;;7.50;5.73;;;;;;;8.44;79.71;92848.34;520051;28;2292;-68
2023/12/02 00:31:26;;;;;;;6.90;5.72;;;;;;;8.44;79.54;92848.34;523399;28;3440;-68
2023/12/02 00:31:42;;;;;;;8.37;5.87;;;;;;;8.46;79.30;92843.03;521031;28;3216;-68
2023/12/02 00:31:58;;;;;;;8.63;5.65;;;;;;;8.43;79.20;92850.34;521648;28;3154;-68
2023/12/02 00:32:13;;;;;;;7.32;5.50;;;;;;;8.15;79.16;92815.47;520558;28;3334;-66
2023/12/02 00:32:29;;;;;;;8.10;5.70;;;;;;;8.37;78.86;92847.78;520969;28;1881;-68
2023/12/02 00:32:44;;;;;;;8.35;5.80;;;;;;;8.35;78.91;92844.13;522072;28;3116;-67
2023/12/02 00:33:00;;;;;;;7.77;5.83;;;;;;;8.30;78.93;92832.00;522103;28;1741;-67
2023/12/02 00:33:15;;;;;;;8.48;6.47;;;;;;;8.28;79.17;92844.84;520797;28;3012;-67
2023/12/02 00:33:31;;;;;;;11.33;8.20;;;;;;;8.25;79.27;92843.16;521536;28;1859;-67
2023/12/02 00:33:47;;;;;;;15.98;11.00;;;;;;;8.23;79.64;92840.22;521156;28;3545;-67
2023/12/02 00:34:02;;;;;;;21.83;13.23;;;;;;;8.13;79.65;92831.03;522195;28;1913;-67
2023/12/02 00:34:18;;;;;;;19.07;11.50;;;;;;;8.16;79.79;92849.19;522295;28;3472;-67
2023/12/02 00:34:33;;;;;;;12.00;8.97;;;;;;;8.13;79.97;92844.78;521350;28;2040;-67
2023/12/02 00:34:48;;;;;;;11.98;8.70;;;;;;;8.14;79.92;92838.72;521501;28;3443;-68
2023/12/02 00:35:04;;;;;;;13.50;9.03;;;;;;;8.10;80.28;92832.16;523334;28;3203;-67
2023/12/02 00:35:20;;;;;;;15.23;9.32;;;;;;;8.19;80.06;92845.34;520997;28;3051;-68
2023/12/02 00:35:35;;;;;;;13.68;8.30;;;;;;;8.21;80.18;92845.53;521152;28;2703;-67
2023/12/02 00:35:51;;;;;;;9.87;7.27;;;;;;;8.21;80.01;92840.03;523226;28;3833;-66
2023/12/02 00:36:10;;;;;;;7.73;6.93;;;;;;;8.23;79.67;92843.69;521288;28;2638;-67
2023/12/02 00:36:25;;;;;;;7.70;6.90;;;;;;;8.21;79.89;92840.03;520691;28;2050;-67
2023/12/02 00:36:45;;;;;;;8.38;6.70;;;;;;;7.95;79.55;92799.13;522925;28;1926;-67
2023/12/02 00:37:00;;;;;;;11.23;6.72;;;;;;;8.22;79.77;92845.00;520335;28;3289;-67
2023/12/02 00:37:16;;;;;;;9.13;6.40;;;;;;;8.25;79.48;92843.16;519875;28;3688;-67
2023/12/02 00:37:31;;;;;;;6.27;5.60;;;;;;;8.20;79.36;92831.06;520121;28;1868;-67
2023/12/02 00:37:46;;;;;;;6.25;5.32;;;;;;;8.29;79.26;92846.31;521910;28;2181;-67
2023/12/02 00:38:02;;;;;;;6.00;5.07;;;;;;;8.31;79.32;92844.50;521677;28;3148;-67
2023/12/02 00:38:17;;;;;;;6.07;4.88;;;;;;;8.32;79.36;92834.94;519764;28;3362;-67
2023/12/02 00:38:33;;;;;;;6.40;5.10;;;;;;;8.33;78.93;92836.41;519047;28;3796;-67
2023/12/02 00:38:48;;;;;;;6.65;5.45;;;;;;;8.35;78.95;92839.34;518074;28;3331;-67
2023/12/02 00:39:04;;;;;;;7.40;5.90;;;;;;;8.37;78.98;92836.78;521225;28;2141;-67
2023/12/02 00:39:19;;;;;;;7.87;6.20;;;;;;;8.37;79.09;92838.78;519857;28;1898;-67
2023/12/02 00:39:35;;;;;;;8.75;6.32;;;;;;;8.38;78.99;92840.28;519093;28;2177;-67
2023/12/02 00:39:50;;;;;;;8.27;6.00;;;;;;;8.28;78.69;92820.09;518183;28;3181;-67
2023/12/02 00:40:06;;;;;;;7.88;6.05;;;;;;;8.37;79.12;92842.28;519147;28;3443;-67
2023/12/02 00:40:22;;;;;;;7.53;5.85;;;;;;;8.39;78.76;92841.72;519377;28;3865;-67
2023/12/02 00:40:37;;;;;;;6.13;5.50;;;;;;;8.31;78.75;92835.50;520628;28;1856;-67
2023/12/02 00:40:53;;;;;;;5.93;5.33;;;;;;;8.32;78.77;92836.94;521016;28;2485;-67
2023/12/02 00:41:10;;;;;;;7.87;5.50;;;;;;;8.31;78.83;92838.25;520965;28;2206;-67
2023/12/02 00:41:26;;;;;;;8.27;5.78;;;;;;;8.10;79.22;92808.13;522869;28;3496;-67
2023/12/02 00:41:41;;;;;;;7.50;5.55;;;;;;;8.36;78.76;92848.31;520344;28;3124;-67
2023/12/02 00:41:57;;;;;;;6.50;5.07;;;;;;;8.36;78.88;92849.06;521410;28;1785;-67
2023/12/02 00:42:12;;;;;;;5.27;4.63;;;;;;;8.36;78.77;92846.31;520809;28;2125;-67
2023/12/02 00:42:28;;;;;;;4.63;4.20;;;;;;;8.40;78.60;92837.72;520919;28;2493;-67
2023/12/02 00:42:43;;;;;;;4.67;4.23;;;;;;;8.39;78.44;92845.22;522156;28;2211;-67
2023/12/02 00:42:58;;;;;;;5.05;4.55;;;;;;;8.37;78.31;92841.53;522401;28;2230;-67
2023/12/02 00:43:14;;;;;;;5.77;4.63;;;;;;;8.33;78.44;92835.69;521299;28;3275;-67
2023/12/02 00:43:29;;;;;;;6.05;4.72;;;;;;;8.31;78.55;92839.00;520288;28;3305;-67
2023/12/02 00:43:45;;;;;;;5.80;5.00;;;;;;;8.30;78.70;92839.50;520272;28;2594;-67
2023/12/02 00:44:01;;;;;;;5.75;4.90;;;;;;;8.31;78.85;92841.00;521499;28;3499;-67
2023/12/02 00:44:16;;;;;;;11.87;4.90;;;;;;;8.33;78.93;92841.19;520009;28;3653;-67
2023/12/02 00:44:32;;;;;;;13.73;5.13;;;;;;;8.34;79.09;92843.38;518868;28;2091;-67
2023/12/02 00:44:47;;;;;;;9.20;5.13;;;;;;;8.34;78.98;92837.13;516065;28;2182;-67
2023/12/02 00:45:03;;;;;;;7.28;5.10;;;;;;;8.38;79.05;92838.25;518098;28;2855;-67
2023/12/02 00:45:18;;;;;;;6.53;5.47;;;;;;;8.38;78.69;92849.25;516503;28;2442;-67
2023/12/02 00:45:34;;;;;;;7.35;5.35;;;;;;;8.36;79.08;92845.56;519054;28;3104;-67
2023/12/02 00:45:49;;;;;;;7.10;5.00;;;;;;;8.35;79.03;92842.09;518446;28;3023;-67
2023/12/02 00:46:05;;;;;;;7.18;4.82;;;;;;;8.35;78.94;92838.63;520955;28;3396;-67
2023/12/02 00:46:21;;;;;;;6.80;4.50;;;;;;;8.35;79.18;92844.13;520235;28;3326;-67
2023/12/02 00:46:37;;;;;;;6.47;5.10;;;;;;;8.36;79.17;92842.81;519327;28;1840;-66
2023/12/02 00:46:52;;;;;;;6.43;5.20;;;;;;;8.37;78.98;92847.78;520608;28;3431;-67
2023/12/02 00:47:08;;;;;;;6.43;5.13;;;;;;;8.38;79.37;92843.75;521503;28;3253;-67
2023/12/02 00:47:23;;;;;;;5.70;4.77;;;;;;;8.37;79.19;92844.28;522802;28;3423;-67
2023/12/02 00:47:38;;;;;;;4.63;4.15;;;;;;;8.37;79.45;92841.53;520915;28;3368;-67
2023/12/02 00:47:54;;;;;;;4.90;4.17;;;;;;;8.38;79.78;92848.53;521252;28;3288;-67
2023/12/02 00:48:09;;;;;;;5.47;4.57;;;;;;;8.39;79.46;92845.22;522910;28;3366;-67
2023/12/02 00:48:25;;;;;;;5.60;4.75;;;;;;;8.41;79.72;92836.41;522944;28;3609;-67
2023/12/02 00:48:40;;;;;;;5.23;4.73;;;;;;;8.40;79.81;92834.97;522791;28;2325;-67
2023/12/02 00:48:56;;;;;;;6.25;5.18;;;;;;;8.43;79.52;92836.59;521138;28;1843;-67
2023/12/02 00:49:11;;;;;;;10.03;7.33;;;;;;;8.32;79.97;92823.19;521081;28;3916;-67
2023/12/02 00:49:27;;;;;;;12.50;9.23;;;;;;;8.45;79.43;92825.03;521267;28;3324;-68
2023/12/02 00:49:42;;;;;;;10.30;7.70;;;;;;;8.46;79.49;92830.00;520742;28;1841;-67
2023/12/02 00:49:58;;;;;;;8.07;6.18;;;;;;;8.49;79.50;92836.44;522179;28;1992;-69
2023/12/02 00:50:13;;;;;;;7.83;6.30;;;;;;;8.48;79.66;92837.69;521224;28;3081;-67
2023/12/02 00:50:28;;;;;;;6.50;5.43;;;;;;;8.50;79.48;92835.13;521842;28;3344;-67
2023/12/02 00:50:44;;;;;;;6.20;4.68;;;;;;;8.49;79.39;92836.44;520061;28;3629;-67
2023/12/02 00:50:59;;;;;;;6.90;4.67;;;;;;;8.50;79.41;92830.38;520633;28;1843;-67
2023/12/02 00:51:15;;;;;;;5.65;4.20;;;;;;;8.52;79.02;92829.81;520726;28;3411;-66
2023/12/02 00:51:30;;;;;;;4.17;3.33;;;;;;;8.52;79.28;92833.31;522935;28;3275;-67
2023/12/02 00:51:46;;;;;;;3.53;3.07;;;;;;;8.52;79.39;92830.56;519787;28;3253;-67
2023/12/02 00:52:01;;;;;;;4.70;3.13;;;;;;;8.50;79.50;92827.63;521217;28;1705;-68
2023/12/02 00:52:16;;;;;;;5.07;3.23;;;;;;;8.50;79.40;92835.13;520058;28;3353;-67
2023/12/02 00:52:32;;;;;;;4.93;3.33;;;;;;;8.48;79.78;92834.94;520181;28;3550;-67
2023/12/02 00:52:47;;;;;;;5.43;3.50;;;;;;;8.48;79.92;92829.44;517967;28;3230;-67
2023/12/02 00:53:03;;;;;;;4.65;3.67;;;;;;;8.47;79.68;92836.97;519543;28;2349;-67
2023/12/02 00:53:19;;;;;;;4.70;4.00;;;;;;;8.47;79.83;92834.22;518540;28;3069;-67
2023/12/02 00:53:35;;;;;;;5.22;4.30;;;;;;;8.50;79.86;92829.63;520491;28;1812;-67
2023/12/02 00:53:50;;;;;;;7.07;4.07;;;;;;;8.48;79.88;92816.44;521466;28;3074;-67
2023/12/02 00:54:06;;;;;;;7.47;4.37;;;;;;;8.53;79.83;92823.03;524017;28;2290;-67
2023/12/02 00:54:21;;;;;;;6.95;5.35;;;;;;;8.52;79.46;92824.31;521581;28;2750;-67
2023/12/02 00:54:37;;;;;;;7.77;5.73;;;;;;;8.51;79.30;92818.06;521705;28;3326;-67
2023/12/02 00:54:52;;;;;;;7.60;5.15;;;;;;;8.49;79.34;92826.13;522774;28;3782;-66
2023/12/02 00:55:08;;;;;;;7.33;4.57;;;;;;;8.46;79.16;92827.25;521013;28;2454;-67
2023/12/02 00:55:24;;;;;;;7.47;4.88;;;;;;;8.47;79.67;92817.00;523534;28;3273;-67
2023/12/02 00:55:39;;;;;;;7.32;5.18;;;;;;;8.48;79.44;92824.69;520806;28;3114;-67
2023/12/02 00:55:54;;;;;;;8.50;5.03;;;;;;;8.49;79.54;92826.13;521851;28;3345;-67
2023/12/02 00:56:10;;;;;;;8.35;5.00;;;;;;;8.51;78.96;92826.31;521109;28;1688;-67
2023/12/02 00:56:26;;;;;;;6.37;5.03;;;;;;;8.53;79.49;92823.78;522419;28;3886;-67
2023/12/02 00:56:41;;;;;;;5.95;4.63;;;;;;;8.56;79.13;92824.66;522552;28;3266;-67
2023/12/02 00:56:57;;;;;;;5.07;3.97;;;;;;;8.58;79.03;92824.84;521581;28;3329;-67
2023/12/02 00:57:12;;;;;;;4.93;3.78;;;;;;;8.60;79.05;92825.06;522079;28;2674;-67
2023/12/02 00:57:27;;;;;;;5.20;4.00;;;;;;;8.63;79.12;92823.94;522313;28;3447;-70
2023/12/02 00:57:43;;;;;;;4.85;4.32;;;;;;;8.64;78.71;92831.63;523189;28;2153;-68
2023/12/02 00:57:58;;;;;;;5.07;4.33;;;;;;;8.66;78.75;92831.84;523096;28;3132;-68
2023/12/02 00:58:14;;;;;;;6.33;4.20;;;;;;;8.67;78.65;92836.06;521027;28;1554;-68
2023/12/02 00:58:29;;;;;;;6.60;4.22;;;;;;;8.64;78.55;92831.63;518740;28;2035;-68
2023/12/02 00:58:45;;;;;;;5.70;4.17;;;;;;;8.64;78.66;92830.94;520187;28;3598;-68
2023/12/02 00:59:00;;;;;;;5.00;4.00;;;;;;;8.63;78.95;92818.44;519620;28;1918;-68
2023/12/02 00:59:15;;;;;;;4.77;4.20;;;;;;;8.63;78.86;92821.19;518097;28;3393;-68
2023/12/02 00:59:31;;;;;;;5.10;4.20;;;;;;;8.60;79.15;92825.06;519507;28;3040;-68
2023/12/02 00:59:46;;;;;;;4.57;3.78;;;;;;;8.59;79.38;92818.81;520507;28;3148;-68
2023/12/02 01:00:03;;;;;;;4.40;3.33;;;;;;;8.54;79.21;92819.72;520794;28;2227;-68
2023/12/02 01:00:19;;;;;;;5.40;2.95;;;;;;;8.55;79.55;92823.97;520115;28;2925;-68
2023/12/02 01:00:35;;;;;;;5.17;2.83;;;;;;;8.52;79.77;92818.81;520885;28;2487;-68
2023/12/02 01:00:50;;;;;;;3.90;2.85;;;;;;;8.48;79.96;92824.69;522053;28;1896;-68
2023/12/02 01:01:06;;;;;;;3.47;3.07;;;;;;;8.49;80.04;92822.69;521105;28;3479;-68
2023/12/02 01:01:21;;;;;;;4.40;3.35;;;;;;;8.48;79.75;92819.19;520648;28;3014;-68
2023/12/02 01:01:37;;;;;;;3.73;3.17;;;;;;;8.49;80.00;92826.13;522917;28;3308;-68
2023/12/02 01:01:52;;;;;;;3.30;3.00;;;;;;;8.50;79.90;92821.38;521143;28;3367;-68
2023/12/02 01:02:08;;;;;;;3.70;3.10;;;;;;;8.49;80.08;92814.41;522767;28;3124;-68
2023/12/02 01:02:24;;;;;;;4.20;3.10;;;;;;;8.48;80.13;92823.94;520887;28;3316;-68
2023/12/02 01:02:39;;;;;;;4.10;3.42;;;;;;;8.46;80.00;92823.75;520876;28;1922;-68
2023/12/02 01:02:54;;;;;;;3.63;3.20;;;;;;;8.47;80.00;92817.69;521429;28;3734;-68
2023/12/02 01:03:10;;;;;;;3.27;2.90;;;;;;;8.51;80.24;92825.59;521523;28;1554;-69
2023/12/02 01:03:25;;;;;;;3.60;2.97;;;;;;;8.54;80.24;92821.72;522051;28;4100;-68
2023/12/02 01:03:41;;;;;;;4.30;2.80;;;;;;;8.56;79.80;92825.41;522067;28;1926;-68
2023/12/02 01:03:57;;;;;;;3.53;2.70;;;;;;;8.58;79.83;92822.84;521504;28;3778;-68
2023/12/02 01:04:12;;;;;;;4.30;2.90;;;;;;;8.61;79.80;92824.50;522850;28;3265;-67
2023/12/02 01:04:27;;;;;;;5.65;3.20;;;;;;;8.63;79.81;92824.69;522311;28;3767;-67
2023/12/02 01:04:43;;;;;;;4.23;3.10;;;;;;;8.61;79.39;92821.75;522108;28;3556;-67
2023/12/02 01:04:58;;;;;;;3.60;3.25;;;;;;;8.61;79.42;92816.25;521198;28;3554;-67
2023/12/02 01:05:14;;;;;;;4.73;3.27;;;;;;;8.60;79.68;92825.06;520888;28;3173;-67
2023/12/02 01:05:29;;;;;;;3.97;2.85;;;;;;;8.59;79.48;92824.31;522614;28;1889;-67
2023/12/02 01:05:45;;;;;;;3.27;2.77;;;;;;;8.62;79.70;92817.00;522497;28;3053;-67
2023/12/02 01:06:00;;;;;;;4.10;3.03;;;;;;;8.62;79.53;92817.69;523803;28;2625;-67
2023/12/02 01:06:16;;;;;;;3.88;3.13;;;;;;;8.64;79.56;92815.13;521654;28;3091;-67
2023/12/02 01:06:31;;;;;;;4.30;3.20;;;;;;;8.62;79.31;92814.94;522527;28;3336;-67
2023/12/02 01:06:46;;;;;;;4.50;3.15;;;;;;;8.61;79.61;92815.50;523049;28;3057;-67
2023/12/02 01:07:02;;;;;;;4.83;3.20;;;;;;;8.56;79.71;92814.41;521862;28;3415;-67
2023/12/02 01:07:17;;;;;;;5.30;3.17;;;;;;;8.59;79.42;92810.56;520735;28;1824;-67
2023/12/02 01:07:33;;;;;;;4.27;3.20;;;;;;;8.57;79.46;92806.88;521767;28;3455;-67
2023/12/02 01:07:48;;;;;;;3.55;3.08;;;;;;;8.62;79.53;92817.69;521955;28;3318;-67
2023/12/02 01:08:04;;;;;;;3.50;2.80;;;;;;;8.66;79.34;92820.09;522337;28;2211;-67
2023/12/02 01:08:19;;;;;;;4.10;3.25;;;;;;;8.46;79.31;92788.75;521281;28;3900;-67
2023/12/02 01:08:35;;;;;;;4.00;3.50;;;;;;;8.66;79.12;92820.09;521192;28;3184;-68
2023/12/02 01:08:50;;;;;;;4.18;3.78;;;;;;;8.65;79.13;92819.34;522120;28;3270;-68
2023/12/02 01:09:06;;;;;;;4.30;3.90;;;;;;;8.64;79.18;92817.88;523727;28;3769;-68
2023/12/02 01:09:21;;;;;;;4.97;4.00;;;;;;;8.66;79.21;92811.84;521401;28;2512;-68
2023/12/02 01:09:37;;;;;;;4.57;3.63;;;;;;;8.67;79.30;92822.28;520851;28;3098;-69
2023/12/02 01:09:52;;;;;;;3.63;2.97;;;;;;;8.66;79.19;92826.34;521837;28;3349;-67
2023/12/02 01:10:11;;;;;;;4.20;3.15;;;;;;;8.66;79.22;92826.34;523118;28;2209;-68
2023/12/02 01:10:27;;;;;;;4.80;3.55;;;;;;;8.66;78.96;92820.84;523459;28;3867;-67
2023/12/02 01:10:42;;;;;;;4.97;3.67;;;;;;;8.67;79.13;92824.31;520558;28;2229;-68
2023/12/02 01:10:58;;;;;;;4.43;3.70;;;;;;;8.65;79.06;92816.59;520745;28;3233;-68
2023/12/02 01:11:13;;;;;;;5.40;3.57;;;;;;;8.68;78.98;92821.03;521436;28;3124;-67
2023/12/02 01:11:29;;;;;;;4.63;3.30;;;;;;;8.67;78.94;92814.03;521226;28;2342;-68
2023/12/02 01:11:44;;;;;;;3.80;3.43;;;;;;;8.68;79.07;92815.50;522119;28;3312;-68
2023/12/02 01:12:00;;;;;;;4.03;3.58;;;;;;;8.69;79.18;92811.47;523578;28;2377;-68
2023/12/02 01:12:15;;;;;;;3.57;3.23;;;;;;;8.71;78.85;92817.16;523403;28;3151;-67
2023/12/02 01:12:31;;;;;;;3.72;3.08;;;;;;;8.73;78.88;92817.31;522725;28;2500;-68
2023/12/02 01:12:46;;;;;;;3.33;2.80;;;;;;;8.77;78.80;92819.72;520528;28;3363;-68
2023/12/02 01:13:02;;;;;;;4.93;2.85;;;;;;;8.78;79.09;92821.91;521198;28;1843;-67
2023/12/02 01:13:18;;;;;;;5.65;3.20;;;;;;;8.66;78.74;92796.06;522457;28;3388;-67
2023/12/02 01:13:33;;;;;;;3.70;3.30;;;;;;;8.83;78.30;92820.25;523645;28;3374;-67
2023/12/02 01:13:48;;;;;;;3.47;3.15;;;;;;;8.85;78.47;92812.91;521830;28;2588;-67
2023/12/02 01:14:04;;;;;;;3.77;3.10;;;;;;;8.86;78.32;92813.63;523374;28;3268;-68
2023/12/02 01:14:19;;;;;;;4.30;3.23;;;;;;;8.85;78.29;92814.94;522070;28;1695;-68
2023/12/02 01:14:35;;;;;;;4.03;3.08;;;;;;;8.86;78.14;92814.38;521404;28;3096;-68
2023/12/02 01:14:50;;;;;;;4.70;3.10;;;;;;;8.87;78.22;92810.34;521053;28;3023;-68
2023/12/02 01:15:06;;;;;;;4.70;3.33;;;;;;;8.89;78.12;92809.78;523011;28;2126;-67
2023/12/02 01:15:21;;;;;;;4.03;3.23;;;;;;;8.88;78.23;92805.59;521249;28;3193;-68
2023/12/02 01:15:37;;;;;;;3.78;3.05;;;;;;;8.91;78.07;92812.72;523269;28;3116;-68